Time;durP1;ratioP1;P1;durP2;ratioP2;P2;SDS_P1;SDS_P2;PMS_P1;PMS_P2;Temp;Humidity;BMP_temperature;BMP_pressure;BME280_temperature;BME280_humidity;BME280_pressure;Samples;Min_cycle;Max_cycle;Signal;HPM_P1;HPM_P2
2021/11/03 00:02:18;;;;;;;;;15.00;12.33;;;;;;;;6188029;22;47628;-80
2021/11/03 00:04:45;;;;;;;;;13.67;13.33;;;;;;;;6190863;22;45565;-80
2021/11/03 00:07:17;;;;;;;;;15.67;12.67;;;;;;;;6191634;22;45413;-80
2021/11/03 00:09:42;;;;;;;;;11.67;10.67;;;;;;;;6218838;22;45481;-80
2021/11/03 00:12:10;;;;;;;;;13.67;12.67;;;;;;;;6191665;22;46582;-80
2021/11/03 00:14:39;;;;;;;;;15.00;11.00;;;;;;;;6219338;22;45339;-80
2021/11/03 00:17:07;;;;;;;;;13.00;11.00;;;;;;;;6194747;22;45364;-80
2021/11/03 00:19:39;;;;;;;;;14.00;13.00;;;;;;;;6194569;22;44813;-79
2021/11/03 00:22:14;;;;;;;;;14.00;14.00;;;;;;;;6220927;22;46314;-80
2021/11/03 00:27:52;;;;;;;;;12.00;12.00;;;;;;;;6127900;23;45356;-80
2021/11/03 00:30:18;;;;;;;;;13.00;13.00;;;;;;;;6127185;23;44708;-80
2021/11/03 00:32:46;;;;;;;;;15.00;12.33;;;;;;;;6126948;23;46167;-81
2021/11/03 00:38:34;;;;;;;;;8.67;8.67;;;;;;;;6068870;23;45440;-79
2021/11/03 00:41:10;;;;;;;;;11.67;11.00;;;;;;;;6070030;23;45811;-81
2021/11/03 00:43:41;;;;;;;;;15.33;14.00;;;;;;;;6068135;23;46851;-80
2021/11/03 00:46:07;;;;;;;;;14.33;12.33;;;;;;;;6069340;23;45343;-80
2021/11/03 00:48:32;;;;;;;;;14.67;12.00;;;;;;;;6085669;23;45541;-80
2021/11/03 00:51:24;;;;;;;;;10.67;10.67;;;;;;;;6073251;23;45603;-80
2021/11/03 00:53:49;;;;;;;;;12.33;12.33;;;;;;;;5987164;23;47072;-80
2021/11/03 00:56:15;;;;;;;;;14.67;14.67;;;;;;;;6011721;23;44786;-79
2021/11/03 00:58:41;;;;;;;;;12.33;11.00;;;;;;;;6011631;23;45461;-80
2021/11/03 01:01:06;;;;;;;;;11.00;11.00;;;;;;;;6013295;23;45384;-80
2021/11/03 01:03:31;;;;;;;;;13.00;13.00;;;;;;;;6013667;23;45340;-81
2021/11/03 01:05:57;;;;;;;;;18.33;13.00;;;;;;;;6039790;23;45343;-80
2021/11/03 01:08:28;;;;;;;;;11.00;11.00;;;;;;;;6042451;23;45398;-80
2021/11/03 01:10:54;;;;;;;;;14.00;13.00;;;;;;;;6041744;23;45535;-80
2021/11/03 01:13:36;;;;;;;;;10.33;10.33;;;;;;;;6042660;23;45374;-80
2021/11/03 01:16:04;;;;;;;;;12.33;12.33;;;;;;;;6046107;23;45504;-80
2021/11/03 01:18:33;;;;;;;;;14.00;14.00;;;;;;;;6072315;23;45291;-80
2021/11/03 01:21:02;;;;;;;;;14.67;13.67;;;;;;;;6071976;23;45362;-80
2021/11/03 01:23:28;;;;;;;;;15.67;15.67;;;;;;;;6071583;23;45471;-80
2021/11/03 01:28:56;;;;;;;;;18.67;18.67;;;;;;;;6071876;23;45495;-80
2021/11/03 01:31:21;;;;;;;;;17.33;16.00;;;;;;;;6181942;22;45344;-80
2021/11/03 01:33:46;;;;;;;;;15.33;13.33;;;;;;;;6222002;22;46622;-80
2021/11/03 01:36:15;;;;;;;;;15.67;15.67;;;;;;;;6198186;22;45433;-80
2021/11/03 01:39:09;;;;;;;;;10.00;9.00;;;;;;;;6195899;22;45389;-80
2021/11/03 01:41:51;;;;;;;;;12.00;11.00;;;;;;;;6231710;22;45359;-79
2021/11/03 01:44:19;;;;;;;;;12.67;12.00;;;;;;;;6194990;22;46902;-80
2021/11/03 01:46:52;;;;;;;;;12.33;12.00;;;;;;;;6195726;22;45200;-80
2021/11/03 01:49:20;;;;;;;;;15.33;11.67;;;;;;;;6222597;22;45359;-80
2021/11/03 01:51:51;;;;;;;;;10.00;9.33;;;;;;;;6196159;22;45348;-80
2021/11/03 01:54:32;;;;;;;;;;;;;;;;;;;;;
2021/11/03 01:57:03;;;;;;;;;11.00;9.00;;;;;;;;6219934;22;72875;-79
2021/11/03 01:59:32;;;;;;;;;9.00;8.67;;;;;;;;6170143;22;45260;-79
2021/11/03 02:02:06;;;;;;;;;11.00;10.67;;;;;;;;6224100;22;45447;-79
2021/11/03 02:04:37;;;;;;;;;14.33;14.00;;;;;;;;6221600;22;45040;-79
2021/11/03 02:07:06;;;;;;;;;8.00;8.00;;;;;;;;6221759;22;44712;-80
2021/11/03 02:09:36;;;;;;;;;16.33;13.67;;;;;;;;6223416;22;45302;-80
2021/11/03 02:12:02;;;;;;;;;9.67;8.00;;;;;;;;6196971;22;44861;-80
2021/11/03 02:17:48;;;;;;;;;12.67;11.00;;;;;;;;6222687;22;45426;-80
2021/11/03 02:20:17;;;;;;;;;11.00;10.00;;;;;;;;6223404;22;45410;-80
2021/11/03 02:23:22;;;;;;;;;9.33;9.00;;;;;;;;6196733;22;45377;-80
2021/11/03 02:25:57;;;;;;;;;13.33;9.67;;;;;;;;6220283;22;45630;-80
2021/11/03 02:31:42;;;;;;;;;10.67;10.67;;;;;;;;6224768;22;45342;-79
2021/11/03 02:34:09;;;;;;;;;12.00;11.33;;;;;;;;6196247;22;45582;-80
2021/11/03 02:36:48;;;;;;;;;11.00;11.00;;;;;;;;6195423;22;48328;-79
2021/11/03 02:39:22;;;;;;;;;11.00;10.00;;;;;;;;6222737;22;45336;-80
2021/11/03 02:41:56;;;;;;;;;10.00;9.00;;;;;;;;6220179;22;45426;-79
2021/11/03 02:44:35;;;;;;;;;15.00;12.33;;;;;;;;6226270;22;45446;-79
2021/11/03 02:47:01;;;;;;;;;12.67;12.00;;;;;;;;6224602;22;47390;-79
2021/11/03 02:49:26;;;;;;;;;15.00;12.33;;;;;;;;6250615;22;45323;-79
2021/11/03 02:51:54;;;;;;;;;14.33;13.00;;;;;;;;6250460;22;45300;-79
2021/11/03 02:57:13;;;;;;;;;11.00;9.33;;;;;;;;6251952;22;45534;-80
2021/11/03 03:00:02;;;;;;;;;12.67;12.33;;;;;;;;6252000;22;44791;-80
2021/11/03 03:02:37;;;;;;;;;15.67;12.33;;;;;;;;6225542;22;45257;-79
2021/11/03 03:05:13;;;;;;;;;13.33;11.00;;;;;;;;6227017;22;45350;-80
2021/11/03 03:10:41;;;;;;;;;13.33;11.00;;;;;;;;6252399;22;45509;-79
2021/11/03 03:13:09;;;;;;;;;9.00;9.00;;;;;;;;6225560;22;44832;-79
2021/11/03 03:15:34;;;;;;;;;17.00;15.00;;;;;;;;6224879;22;45529;-80
2021/11/03 03:18:00;;;;;;;;;12.33;12.33;;;;;;;;6222873;22;45634;-79
2021/11/03 03:20:25;;;;;;;;;10.67;9.00;;;;;;;;6223973;22;45725;-79
2021/11/03 03:23:02;;;;;;;;;14.00;14.00;;;;;;;;6252945;22;45279;-80
2021/11/03 03:25:46;;;;;;;;;12.67;11.33;;;;;;;;6227216;22;44856;-80
2021/11/03 03:28:15;;;;;;;;;11.67;11.67;;;;;;;;6222673;22;45279;-80
2021/11/03 03:30:41;;;;;;;;;11.00;9.67;;;;;;;;6223076;22;45414;-80
2021/11/03 03:33:06;;;;;;;;;12.00;11.00;;;;;;;;6252773;22;44723;-80
2021/11/03 03:35:32;;;;;;;;;12.33;12.33;;;;;;;;6251653;22;45303;-80
2021/11/03 03:37:59;;;;;;;;;17.67;15.67;;;;;;;;6211051;22;46691;-80
2021/11/03 03:40:31;;;;;;;;;10.00;10.00;;;;;;;;6224041;22;45323;-80
2021/11/03 03:43:01;;;;;;;;;11.00;11.00;;;;;;;;6219879;22;45484;-80
2021/11/03 03:45:26;;;;;;;;;11.33;11.33;;;;;;;;6221508;22;44904;-80
2021/11/03 03:47:51;;;;;;;;;14.33;14.00;;;;;;;;6252010;22;45329;-80
2021/11/03 03:50:20;;;;;;;;;16.33;15.67;;;;;;;;6251972;22;45309;-79
2021/11/03 03:52:47;;;;;;;;;13.67;13.67;;;;;;;;6252565;22;45471;-79
2021/11/03 03:55:13;;;;;;;;;14.67;13.67;;;;;;;;6224749;22;45451;-80
2021/11/03 03:57:50;;;;;;;;;18.67;16.33;;;;;;;;6222488;22;46859;-80
2021/11/03 04:00:17;;;;;;;;;14.67;14.67;;;;;;;;6251524;22;45299;-81
2021/11/03 04:02:43;;;;;;;;;14.67;14.00;;;;;;;;6222920;22;45410;-79
2021/11/03 04:05:08;;;;;;;;;16.67;15.00;;;;;;;;6223972;22;45386;-79
2021/11/03 04:07:34;;;;;;;;;22.67;17.33;;;;;;;;6225002;22;46886;-79
2021/11/03 04:09:59;;;;;;;;;17.00;16.67;;;;;;;;6227933;22;45429;-80
2021/11/03 04:12:35;;;;;;;;;;;;;;;;;;;;;
2021/11/03 04:15:01;;;;;;;;;16.33;16.33;;;;;;;;6251555;22;65231;-80
2021/11/03 04:17:29;;;;;;;;;16.33;16.00;;;;;;;;6225637;22;46660;-80
2021/11/03 04:19:54;;;;;;;;;21.00;21.00;;;;;;;;6224693;22;45563;-79
2021/11/03 04:22:25;;;;;;;;;21.00;16.67;;;;;;;;6225463;22;45347;-80
2021/11/03 04:24:50;;;;;;;;;19.33;17.00;;;;;;;;6225817;22;44880;-79
2021/11/03 04:27:16;;;;;;;;;22.67;19.67;;;;;;;;6224949;22;46808;-80
2021/11/03 04:29:43;;;;;;;;;22.67;20.00;;;;;;;;6225384;22;45644;-80
2021/11/03 04:32:17;;;;;;;;;22.33;22.33;;;;;;;;6224265;22;45101;-80
2021/11/03 04:34:43;;;;;;;;;21.00;19.00;;;;;;;;6224253;22;45223;-79
2021/11/03 04:37:20;;;;;;;;;17.00;17.00;;;;;;;;6225397;22;46655;-79
2021/11/03 04:39:49;;;;;;;;;19.67;16.33;;;;;;;;6251280;22;45392;-79
2021/11/03 04:42:14;;;;;;;;;20.00;17.33;;;;;;;;6219624;22;44875;-79
2021/11/03 04:44:42;;;;;;;;;25.00;19.00;;;;;;;;6223384;22;45355;-80
2021/11/03 04:47:28;;;;;;;;;20.33;17.67;;;;;;;;6224964;22;46512;-79
2021/11/03 04:49:57;;;;;;;;;19.67;17.00;;;;;;;;6252278;22;44819;-79
2021/11/03 04:52:32;;;;;;;;;21.00;19.67;;;;;;;;6223193;22;45416;-80
2021/11/03 04:55:16;;;;;;;;;16.33;15.00;;;;;;;;6255895;22;45299;-79
2021/11/03 04:57:44;;;;;;;;;15.00;14.67;;;;;;;;6228703;22;46308;-79
2021/11/03 05:00:20;;;;;;;;;20.67;16.67;;;;;;;;6226657;22;45485;-80
2021/11/03 05:03:01;;;;;;;;;22.33;22.33;;;;;;;;6227976;22;45347;-79
2021/11/03 05:05:26;;;;;;;;;21.00;16.00;;;;;;;;6255075;22;45457;-79
2021/11/03 05:07:52;;;;;;;;;20.33;20.33;;;;;;;;6224294;22;46584;-80
2021/11/03 05:10:18;;;;;;;;;27.67;21.67;;;;;;;;6223184;22;45461;-80
2021/11/03 05:12:48;;;;;;;;;19.33;19.00;;;;;;;;6222432;22;45499;-80
2021/11/03 05:15:19;;;;;;;;;22.67;22.67;;;;;;;;6251617;22;45381;-80
2021/11/03 05:17:47;;;;;;;;;20.67;19.33;;;;;;;;6222147;22;47517;-80
2021/11/03 05:20:38;;;;;;;;;9.00;6.33;;;;;;;;6220877;22;45340;-80
2021/11/03 05:23:04;;;;;;;;;24.00;19.67;;;;;;;;6228116;22;45318;-80
2021/11/03 05:28:30;;;;;;;;;26.67;21.00;;;;;;;;6223935;22;45891;-80
2021/11/03 05:31:05;;;;;;;;;24.00;24.00;;;;;;;;6222277;22;44774;-80
2021/11/03 05:33:33;;;;;;;;;20.00;20.00;;;;;;;;6221942;22;45315;-80
2021/11/03 05:35:59;;;;;;;;;25.00;21.67;;;;;;;;6221978;22;45413;-80
2021/11/03 05:38:24;;;;;;;;;18.00;18.00;;;;;;;;6248445;22;45485;-80
2021/11/03 05:40:58;;;;;;;;;23.33;21.33;;;;;;;;6220890;22;45476;-80
2021/11/03 05:46:49;;;;;;;;;23.67;20.00;;;;;;;;6250195;22;45822;-79
2021/11/03 05:49:39;;;;;;;;;23.33;23.00;;;;;;;;6225300;22;46737;-79
2021/11/03 05:52:07;;;;;;;;;23.00;20.00;;;;;;;;6222805;22;45378;-79
2021/11/03 05:54:35;;;;;;;;;24.33;18.33;;;;;;;;6251495;22;45417;-79
2021/11/03 05:57:04;;;;;;;;;21.33;21.33;;;;;;;;6224517;22;45350;-79
2021/11/03 06:03:13;;;;;;;;;26.67;22.33;;;;;;;;6249937;22;44747;-79
2021/11/03 06:05:41;;;;;;;;;21.00;19.33;;;;;;;;6224476;22;45666;-79
2021/11/03 06:08:13;;;;;;;;;20.33;18.67;;;;;;;;6224360;22;45312;-79
2021/11/03 06:11:07;;;;;;;;;22.67;22.67;;;;;;;;6223569;22;46414;-79
2021/11/03 06:13:45;;;;;;;;;;;;;;;;;;;;;
2021/11/03 06:16:14;;;;;;;;;22.00;20.33;;;;;;;;6128482;23;68562;-80
2021/11/03 06:18:41;;;;;;;;;20.33;17.67;;;;;;;;6102962;23;45519;-79
2021/11/03 06:21:11;;;;;;;;;22.33;21.00;;;;;;;;6127165;23;47125;-80
2021/11/03 06:23:38;;;;;;;;;24.33;17.00;;;;;;;;6130186;23;44766;-80
2021/11/03 06:26:06;;;;;;;;;21.00;21.00;;;;;;;;6105939;23;45536;-80
2021/11/03 06:28:39;;;;;;;;;21.67;21.67;;;;;;;;6104844;23;44771;-80
2021/11/03 06:31:09;;;;;;;;;20.33;20.33;;;;;;;;6128020;23;46721;-80
2021/11/03 06:34:04;;;;;;;;;24.00;21.00;;;;;;;;6129846;23;45401;-80
2021/11/03 06:37:15;;;;;;;;;18.67;18.33;;;;;;;;6130866;23;45477;-80
2021/11/03 06:39:31;;;;;;;;;26.00;22.00;;;;;;;;6122977;23;45363;-80
2021/11/03 06:42:02;;;;;;;;;20.33;19.33;;;;;;;;6103997;23;47212;-80
2021/11/03 06:44:34;;;;;;;;;21.67;21.67;;;;;;;;6103925;23;45498;-80
2021/11/03 06:46:59;;;;;;;;;20.67;18.00;;;;;;;;6105845;23;45371;-80
2021/11/03 06:49:25;;;;;;;;;24.67;20.67;;;;;;;;6104784;23;45625;-80
2021/11/03 06:51:50;;;;;;;;;23.00;20.33;;;;;;;;6103136;23;47015;-80
2021/11/03 06:54:16;;;;;;;;;17.00;17.00;;;;;;;;6104735;23;45742;-80
2021/11/03 06:56:42;;;;;;;;;19.33;16.67;;;;;;;;6104472;23;45381;-80
2021/11/03 06:59:14;;;;;;;;;19.67;16.67;;;;;;;;6129855;23;45458;-80
2021/11/03 07:01:45;;;;;;;;;22.33;19.00;;;;;;;;6101200;23;45317;-80
2021/11/03 07:04:16;;;;;;;;;19.67;19.67;;;;;;;;6106739;23;45598;-80
2021/11/03 07:06:41;;;;;;;;;21.00;20.00;;;;;;;;6106813;23;45760;-80
2021/11/03 07:09:20;;;;;;;;;17.33;15.33;;;;;;;;6172535;22;45284;-79
2021/11/03 07:11:51;;;;;;;;;19.67;18.33;;;;;;;;6255428;22;46325;-80
2021/11/03 07:14:32;;;;;;;;;20.67;20.33;;;;;;;;6227254;22;44761;-79
2021/11/03 07:17:10;;;;;;;;;21.33;21.33;;;;;;;;6255132;22;45216;-80
2021/11/03 07:19:36;;;;;;;;;21.00;19.67;;;;;;;;6226919;22;45430;-81
2021/11/03 07:22:04;;;;;;;;;22.33;18.00;;;;;;;;6251985;22;45457;-80
2021/11/03 07:24:33;;;;;;;;;23.33;19.67;;;;;;;;6226840;22;45729;-80
2021/11/03 07:27:02;;;;;;;;;21.67;19.33;;;;;;;;6222990;22;45255;-81
2021/11/03 07:29:28;;;;;;;;;20.00;16.67;;;;;;;;6255075;22;45523;-81
2021/11/03 07:31:53;;;;;;;;;27.33;23.00;;;;;;;;6226379;22;46783;-80
2021/11/03 07:34:18;;;;;;;;;20.67;19.67;;;;;;;;6225448;22;45354;-80
2021/11/03 07:36:49;;;;;;;;;22.67;21.33;;;;;;;;6226088;22;45369;-82
2021/11/03 07:39:19;;;;;;;;;21.33;21.33;;;;;;;;6248417;22;45269;-79
2021/11/03 07:41:51;;;;;;;;;20.00;19.33;;;;;;;;6225725;22;46633;-79
2021/11/03 07:44:24;;;;;;;;;26.33;24.67;;;;;;;;6216565;22;45806;-79
2021/11/03 07:46:57;;;;;;;;;19.67;17.67;;;;;;;;6251939;22;45698;-80
2021/11/03 07:49:42;;;;;;;;;14.00;13.33;;;;;;;;6226112;22;45333;-80
2021/11/03 07:52:28;;;;;;;;;19.33;18.67;;;;;;;;6226422;22;46828;-80
2021/11/03 08:01:21;;;;;;;;;;;;;;;;;;;;;
2021/11/03 08:04:33;;;;;;;;;;;;;;;;;;;;;
2021/11/03 08:06:55;;;;;;;;;18.33;18.33;;;;;;;;6157408;23;45827;-80
2021/11/03 08:22:43;;;;;;;;;;;;;;;;;;;;;
2021/11/03 08:25:24;;;;;;;;;;;;;;;;;;;;;
2021/11/03 08:31:00;;;;;;;;;22.33;19.67;;;;;;;;5875612;24;45409;-81
2021/11/03 08:46:14;;;;;;;;;18.67;16.67;;;;;;;;5900006;24;45460;-81
2021/11/03 08:51:47;;;;;;;;;19.00;18.00;;;;;;;;5905407;24;45630;-82
2021/11/03 08:57:19;;;;;;;;;20.33;20.33;;;;;;;;5910207;23;45463;-81
2021/11/03 09:00:22;;;;;;;;;;;;;;;;;;;;;
2021/11/03 10:03:11;;;;;;;;;;;;;;;;;;;;;
2021/11/03 10:05:56;;;;;;;;;21.33;16.33;;;;;;;;6164109;23;74845;-82
2021/11/03 10:27:35;;;;;;;;;;;;;;;;;;;;;
2021/11/03 10:36:37;;;;;;;;;15.00;15.00;;;;;;;;6133758;23;45485;-81
2021/11/03 10:48:27;;;;;;;;;;;;;;;;;;;;;
2021/11/03 10:51:08;;;;;;;;;18.67;17.00;;;;;;;;6101754;23;65173;-81
2021/11/03 11:29:59;;;;;;;;;9.33;9.33;;;;;;;;6260096;22;45112;-80
2021/11/03 16:55:25;;;;;;;;;8.00;8.00;;;;;;;;6257342;22;45445;-84
2021/11/03 16:58:00;;;;;;;;;9.67;8.67;;;;;;;;6232058;22;44915;-83
2021/11/03 20:14:58;;;;;;;;;21.33;18.67;;;;;;;;6138971;22;45842;-85
2021/11/03 20:21:08;;;;;;;;;;;;;;;;;;;;;
2021/11/03 20:24:03;;;;;;;;;20.33;19.67;;;;;;;;6132334;23;74412;-85
2021/11/03 20:32:43;;;;;;;;;21.00;19.67;;;;;;;;6135752;23;46237;-86
2021/11/03 21:01:29;;;;;;;;;26.00;25.33;;;;;;;;6232358;22;45358;-85
2021/11/03 21:03:54;;;;;;;;;34.00;29.67;;;;;;;;6255229;22;44743;-85
2021/11/03 21:28:18;;;;;;;;;34.33;31.33;;;;;;;;6046619;23;45341;-84
2021/11/03 21:45:16;;;;;;;;;27.00;26.67;;;;;;;;6220968;22;46359;-85
2021/11/03 21:48:03;;;;;;;;;21.33;19.33;;;;;;;;6257067;22;45326;-85
2021/11/03 21:51:00;;;;;;;;;25.33;25.00;;;;;;;;6229972;22;45211;-85
2021/11/03 22:55:09;;;;;;;;;21.33;18.67;;;;;;;;6102534;22;47295;-84
2021/11/03 23:01:04;;;;;;;;;24.00;21.33;;;;;;;;6194575;22;47206;-85
